Terminal Aerodrome Forecast
Issued by NWS Amarillo, TX

Home | Current Version | Previous Version | Text Only | Print | Product List | Glossary On
Versions: 1 2 3 4 5 6 7 8 9 10 11 12 13 14 15 16 17 18 19
000
FTUS44 KAMA 290500
TAFDHT
TAF
KDHT 290520Z 2906/3006 14007KT P6SM SCT030 BKN300
     FM290900 17007KT P6SM VCTS SCT010CB BKN100
     FM291500 18013G22KT P6SM SCT035 BKN300
     FM300000 17013KT P6SM VCTS SCT035CB BKN300=

USA.gov is the U.S. government's official web portal to all federal, state and local government web resources and services.